createdAt,value
2023-03-31T00:00:20.400Z,13.08
2023-03-31T00:02:47.049Z,13.08
2023-03-31T00:05:17.974Z,12.98
2023-03-31T00:07:46.243Z,13.04
2023-03-31T00:10:18.009Z,13.05
2023-03-31T00:12:48.864Z,12.80
2023-03-31T00:15:15.877Z,13.06
2023-03-31T00:17:43.736Z,12.93
2023-03-31T00:20:12.601Z,12.83
2023-03-31T00:22:42.256Z,12.92
2023-03-31T00:25:16.563Z,13.06
2023-03-31T00:27:44.560Z,12.84
2023-03-31T00:30:13.499Z,12.93
2023-03-31T00:32:40.294Z,12.90
2023-03-31T00:35:07.207Z,12.85
2023-03-31T00:37:34.069Z,12.87
2023-03-31T00:40:01.658Z,13.05
2023-03-31T00:42:28.468Z,13.09
2023-03-31T00:45:22.380Z,12.88
2023-03-31T00:48:04.694Z,13.01
2023-03-31T00:50:37.559Z,12.90
2023-03-31T00:53:15.776Z,12.85
2023-03-31T00:55:48.316Z,12.98
2023-03-31T00:58:20.089Z,12.83
2023-03-31T01:00:49.081Z,12.84
2023-03-31T01:03:16.444Z,12.89
2023-03-31T01:05:47.627Z,12.86
2023-03-31T01:08:16.883Z,12.89
2023-03-31T01:10:48.210Z,12.75
2023-03-31T01:13:16.532Z,12.49
2023-03-31T01:15:43.581Z,12.82
2023-03-31T01:18:13.052Z,12.67
2023-03-31T01:21:20.035Z,12.82
2023-03-31T01:23:58.777Z,12.79
2023-03-31T01:26:50.128Z,12.73
2023-03-31T01:29:58.957Z,12.71
2023-03-31T01:32:44.113Z,12.70
2023-03-31T01:35:29.511Z,12.73
2023-03-31T01:38:23.959Z,12.70
2023-03-31T01:40:58.071Z,12.59
2023-03-31T01:43:44.094Z,12.57
2023-03-31T01:46:17.423Z,12.50
2023-03-31T01:48:59.389Z,12.63
2023-03-31T01:51:40.445Z,12.66
2023-03-31T01:54:23.496Z,12.74
2023-03-31T01:56:55.953Z,12.55
2023-03-31T01:59:26.999Z,12.60
2023-03-31T02:02:06.542Z,12.48
2023-03-31T02:04:48.332Z,12.55
2023-03-31T02:07:21.805Z,12.59
2023-03-31T02:09:53.860Z,12.51
2023-03-31T02:12:24.884Z,12.63
2023-03-31T02:14:55.877Z,12.25
2023-03-31T02:17:32.760Z,12.14
2023-03-31T02:20:09.105Z,12.19
2023-03-31T02:22:39.058Z,12.02
2023-03-31T02:25:10.587Z,12.25
2023-03-31T02:27:43.254Z,12.17
2023-03-31T02:30:12.890Z,12.11
2023-03-31T02:32:44.801Z,12.09
2023-03-31T02:35:20.384Z,11.93
2023-03-31T02:37:49.667Z,12.14
2023-03-31T02:40:19.756Z,12.24
2023-03-31T02:42:46.697Z,12.09
2023-03-31T02:45:44.241Z,12.14
2023-03-31T02:48:13.356Z,11.90
2023-03-31T02:51:10.601Z,11.92
2023-03-31T02:54:14.409Z,12.03
2023-03-31T02:57:19.219Z,12.14
2023-03-31T03:00:08.017Z,12.17
2023-03-31T03:02:58.372Z,12.13
2023-03-31T03:05:40.392Z,12.21
2023-03-31T03:08:40.526Z,12.24
2023-03-31T03:11:34.786Z,12.11
2023-03-31T03:14:25.884Z,12.07
2023-03-31T03:17:06.071Z,12.18
2023-03-31T03:19:32.670Z,12.11
2023-03-31T03:21:59.277Z,12.14
2023-03-31T03:24:29.429Z,12.23
2023-03-31T03:26:56.840Z,12.21
2023-03-31T03:29:23.521Z,12.20
2023-03-31T03:31:50.624Z,12.20
2023-03-31T03:34:18.579Z,12.23
2023-03-31T03:36:45.667Z,12.19
2023-03-31T03:39:12.467Z,12.14
2023-03-31T03:41:39.242Z,12.10
2023-03-31T03:44:05.892Z,11.93
2023-03-31T03:46:32.832Z,12.05
2023-03-31T03:48:59.431Z,11.98
2023-03-31T03:51:26.071Z,12.01
2023-03-31T03:53:52.661Z,11.79
2023-03-31T03:56:19.336Z,11.88
2023-03-31T03:58:45.855Z,11.81
2023-03-31T04:01:12.610Z,11.95
2023-03-31T04:03:39.162Z,11.89
2023-03-31T04:06:06.257Z,11.91
2023-03-31T04:08:32.977Z,11.83
2023-03-31T04:10:59.741Z,11.75
2023-03-31T04:13:26.431Z,11.94
2023-03-31T04:15:53.171Z,11.86
2023-03-31T04:18:25.660Z,11.82
2023-03-31T04:21:06.017Z,11.86
2023-03-31T04:23:34.381Z,11.84
2023-03-31T04:26:01.430Z,11.71
2023-03-31T04:28:34.727Z,11.78
2023-03-31T04:31:02.805Z,11.77
2023-03-31T04:33:29.400Z,11.77
2023-03-31T04:35:56.043Z,11.71
2023-03-31T04:38:24.501Z,11.68
2023-03-31T04:40:52.602Z,11.58
2023-03-31T04:43:21.094Z,11.61
2023-03-31T04:45:47.798Z,11.51
2023-03-31T04:48:14.451Z,11.27
2023-03-31T04:50:41.458Z,11.43
2023-03-31T04:53:08.330Z,11.42
2023-03-31T04:55:35.124Z,11.37
2023-03-31T04:58:01.767Z,11.38
2023-03-31T05:00:28.993Z,11.38
2023-03-31T05:02:56.942Z,11.38
2023-03-31T05:05:23.967Z,11.10
2023-03-31T05:07:50.715Z,11.10
2023-03-31T05:10:17.503Z,11.22
2023-03-31T05:12:44.337Z,11.12
2023-03-31T05:15:11.445Z,11.24
2023-03-31T05:17:38.235Z,11.04
2023-03-31T05:20:08.214Z,11.07
2023-03-31T05:22:39.398Z,11.22
2023-03-31T05:25:08.435Z,11.11
2023-03-31T05:27:35.953Z,11.16
2023-03-31T05:30:03.288Z,11.31
2023-03-31T05:32:30.185Z,11.28
2023-03-31T05:34:57.815Z,11.34
2023-03-31T05:37:25.518Z,11.24
2023-03-31T05:39:52.395Z,11.47
2023-03-31T05:42:19.918Z,11.46
2023-03-31T05:44:46.781Z,11.43
2023-03-31T05:47:13.687Z,11.53
2023-03-31T05:49:40.684Z,11.62
2023-03-31T05:52:08.235Z,11.64
2023-03-31T05:54:34.788Z,11.75
2023-03-31T05:57:01.578Z,11.73
2023-03-31T05:59:28.311Z,11.90
2023-03-31T06:01:54.999Z,11.86
2023-03-31T06:04:21.722Z,11.82
2023-03-31T06:06:50.194Z,12.05
2023-03-31T06:09:17.892Z,12.03
2023-03-31T06:11:44.795Z,12.17
2023-03-31T06:14:11.769Z,12.19
2023-03-31T06:16:38.909Z,12.24
2023-03-31T06:19:05.725Z,12.35
2023-03-31T06:21:32.378Z,12.50
2023-03-31T06:24:00.370Z,12.58
2023-03-31T06:26:27.542Z,12.68
2023-03-31T06:28:54.417Z,13.00
2023-03-31T06:31:23.946Z,13.11
2023-03-31T06:33:50.676Z,13.15
2023-03-31T06:36:19.783Z,13.13
2023-03-31T06:38:47.052Z,13.06
2023-03-31T06:41:15.559Z,13.16
2023-03-31T06:43:42.610Z,13.18
2023-03-31T06:46:10.130Z,13.17
2023-03-31T06:48:37.148Z,13.24
2023-03-31T06:51:05.898Z,13.19
2023-03-31T06:53:32.842Z,13.21
2023-03-31T06:55:59.533Z,13.12
2023-03-31T06:58:28.320Z,12.91
2023-03-31T07:00:56.683Z,13.16
2023-03-31T07:03:25.297Z,13.01
2023-03-31T07:05:53.795Z,12.92
2023-03-31T07:08:21.472Z,12.66
2023-03-31T07:10:50.227Z,13.08
2023-03-31T07:13:17.596Z,13.17
2023-03-31T07:15:47.970Z,13.07
2023-03-31T07:18:16.116Z,13.22
2023-03-31T07:20:43.491Z,13.26
2023-03-31T07:23:10.481Z,13.43
2023-03-31T07:25:37.133Z,13.55
2023-03-31T07:28:05.056Z,13.79
2023-03-31T07:30:32.071Z,13.68
2023-03-31T07:32:59.508Z,13.65
2023-03-31T07:35:26.229Z,13.64
2023-03-31T07:37:52.935Z,13.88
2023-03-31T07:40:25.489Z,14.03
2023-03-31T07:42:52.911Z,14.35
2023-03-31T07:45:21.424Z,14.59
2023-03-31T07:47:48.764Z,14.64
2023-03-31T07:50:16.596Z,14.86
2023-03-31T07:52:47.478Z,15.07
2023-03-31T07:55:17.687Z,15.50
2023-03-31T07:57:46.106Z,15.83
2023-03-31T08:00:14.170Z,15.82
2023-03-31T08:02:42.915Z,16.08
2023-03-31T08:05:14.015Z,16.30
2023-03-31T08:07:43.163Z,16.73
2023-03-31T08:10:13.720Z,16.82
2023-03-31T08:12:40.929Z,17.33
2023-03-31T08:15:08.492Z,17.68
2023-03-31T08:17:35.759Z,18.12
2023-03-31T08:20:07.148Z,18.39
2023-03-31T08:22:34.804Z,18.25
2023-03-31T08:25:01.409Z,18.34
2023-03-31T08:27:28.426Z,18.21
2023-03-31T08:29:54.995Z,17.94
2023-03-31T08:32:24.893Z,17.59
2023-03-31T08:34:51.626Z,17.59
2023-03-31T08:37:18.266Z,17.64
2023-03-31T08:39:45.061Z,17.67
2023-03-31T08:42:16.841Z,17.48
2023-03-31T08:45:10.560Z,18.03
2023-03-31T08:47:39.155Z,18.28
2023-03-31T08:50:13.676Z,18.59
2023-03-31T08:52:47.443Z,18.53
2023-03-31T08:55:22.424Z,18.68
2023-03-31T08:58:13.218Z,18.76
2023-03-31T09:01:00.434Z,18.51
2023-03-31T09:04:16.800Z,18.94
2023-03-31T09:06:47.728Z,19.04
2023-03-31T09:09:32.519Z,19.08
2023-03-31T09:12:07.960Z,19.18
2023-03-31T09:14:41.321Z,18.92
2023-03-31T09:17:26.434Z,19.04
2023-03-31T09:20:01.604Z,19.01
2023-03-31T09:22:32.960Z,19.57
2023-03-31T09:25:06.009Z,19.92
2023-03-31T09:27:37.207Z,19.81
2023-03-31T09:30:16.471Z,19.68
2023-03-31T09:32:43.812Z,19.03
2023-03-31T09:35:13.376Z,18.96
2023-03-31T09:37:40.098Z,18.94
2023-03-31T09:40:07.868Z,19.23
2023-03-31T09:42:36.214Z,19.23
2023-03-31T09:45:03.405Z,18.73
2023-03-31T09:47:42.553Z,18.94
2023-03-31T09:50:11.156Z,18.98
2023-03-31T09:52:43.430Z,18.97
2023-03-31T09:55:40.209Z,18.85
2023-03-31T09:58:08.606Z,18.60
2023-03-31T10:00:35.268Z,18.80
2023-03-31T10:03:07.616Z,19.06
2023-03-31T10:05:41.150Z,18.93
2023-03-31T10:08:13.715Z,18.60
2023-03-31T10:10:46.457Z,18.10
2023-03-31T10:13:17.449Z,17.75
2023-03-31T10:15:44.696Z,17.75
2023-03-31T10:18:16.520Z,17.62
2023-03-31T10:20:49.041Z,17.76
2023-03-31T10:23:27.059Z,17.71
2023-03-31T10:25:54.458Z,17.81
2023-03-31T10:28:22.597Z,17.74
2023-03-31T10:30:56.168Z,17.59
2023-03-31T10:33:28.512Z,17.63
2023-03-31T10:36:00.198Z,17.20
2023-03-31T10:38:32.005Z,17.36
2023-03-31T10:40:59.776Z,17.21
2023-03-31T10:43:50.387Z,17.41
2023-03-31T10:46:17.477Z,17.46
2023-03-31T10:48:44.938Z,17.70
2023-03-31T10:51:19.579Z,18.10
2023-03-31T10:53:51.110Z,18.16
2023-03-31T10:56:52.846Z,18.32
2023-03-31T10:59:36.418Z,18.21
2023-03-31T11:02:37.164Z,20.06
2023-03-31T11:05:03.891Z,21.36
2023-03-31T11:07:46.693Z,22.65
2023-03-31T11:10:40.649Z,23.50
2023-03-31T11:13:19.375Z,22.92
2023-03-31T11:15:48.958Z,22.27
2023-03-31T11:18:32.794Z,21.75
2023-03-31T11:20:59.434Z,21.08
2023-03-31T11:23:40.079Z,21.55
2023-03-31T11:26:15.678Z,22.07
2023-03-31T11:29:06.420Z,22.63
2023-03-31T11:31:59.208Z,22.19
2023-03-31T11:34:44.422Z,21.73
2023-03-31T11:37:41.644Z,22.61
2023-03-31T11:40:17.435Z,23.17
2023-03-31T11:43:03.397Z,22.57
2023-03-31T11:45:38.870Z,23.40
2023-03-31T11:48:16.509Z,24.49
2023-03-31T11:50:46.995Z,23.88
2023-03-31T11:53:20.897Z,24.90
2023-03-31T11:55:51.254Z,26.48
2023-03-31T11:58:30.293Z,27.35
2023-03-31T12:01:02.663Z,25.80
2023-03-31T12:03:33.287Z,25.07
2023-03-31T12:06:06.341Z,25.47
2023-03-31T12:08:41.796Z,27.12
2023-03-31T12:11:29.445Z,27.83
2023-03-31T12:14:15.368Z,27.71
2023-03-31T12:16:47.555Z,28.95
2023-03-31T12:19:23.254Z,27.98
2023-03-31T12:22:05.405Z,26.83
2023-03-31T12:24:32.538Z,26.40
2023-03-31T12:27:12.258Z,24.49
2023-03-31T12:30:01.429Z,25.38
2023-03-31T12:32:38.355Z,26.80
2023-03-31T12:35:15.428Z,26.77
2023-03-31T12:37:48.142Z,28.01
2023-03-31T12:40:31.049Z,27.32
2023-03-31T12:43:24.493Z,27.96
2023-03-31T12:46:01.887Z,27.02
2023-03-31T12:48:55.491Z,24.68
2023-03-31T12:51:30.938Z,24.33
2023-03-31T12:54:03.951Z,23.52
2023-03-31T12:56:50.370Z,25.14
2023-03-31T12:59:32.686Z,26.55
2023-03-31T13:02:26.202Z,27.99
2023-03-31T13:04:53.409Z,27.44
2023-03-31T13:07:29.132Z,26.81
2023-03-31T13:10:14.636Z,28.13
2023-03-31T13:12:41.641Z,29.17
2023-03-31T13:15:14.317Z,28.67
2023-03-31T13:17:42.519Z,28.89
2023-03-31T13:20:24.934Z,29.43
2023-03-31T13:23:00.755Z,27.29
2023-03-31T13:25:33.300Z,27.94
2023-03-31T13:28:23.223Z,28.81
2023-03-31T13:31:07.733Z,29.29
2023-03-31T13:33:38.503Z,27.16
2023-03-31T13:36:27.330Z,27.36
2023-03-31T13:39:26.885Z,28.25
2023-03-31T13:41:56.345Z,29.85
2023-03-31T13:44:57.134Z,30.38
2023-03-31T13:48:04.071Z,30.75
2023-03-31T13:51:12.511Z,27.99
2023-03-31T13:53:54.546Z,27.60
2023-03-31T13:56:33.324Z,26.72
2023-03-31T13:59:21.513Z,26.41
2023-03-31T14:02:25.955Z,25.93
2023-03-31T14:04:58.682Z,24.44
2023-03-31T14:07:38.678Z,25.53
2023-03-31T14:10:07.217Z,26.27
2023-03-31T14:12:38.280Z,26.39
2023-03-31T14:15:06.954Z,27.17
2023-03-31T14:17:37.534Z,27.63
2023-03-31T14:20:10.536Z,28.39
2023-03-31T14:22:48.268Z,27.98
2023-03-31T14:25:42.919Z,28.61
2023-03-31T14:28:21.709Z,28.05
2023-03-31T14:31:05.021Z,28.79
2023-03-31T14:33:37.809Z,30.78
2023-03-31T14:36:08.109Z,30.73
2023-03-31T14:38:35.150Z,30.59
2023-03-31T14:41:03.534Z,30.52
2023-03-31T14:43:33.891Z,30.44
2023-03-31T14:46:02.530Z,30.59
2023-03-31T14:48:31.860Z,31.35
2023-03-31T14:51:02.021Z,30.60
2023-03-31T14:53:29.048Z,30.50
2023-03-31T14:56:03.052Z,29.99
2023-03-31T14:58:47.401Z,31.02
2023-03-31T15:01:26.232Z,31.49
2023-03-31T15:03:54.635Z,31.53
2023-03-31T15:06:25.779Z,31.40
2023-03-31T15:08:57.673Z,31.60
2023-03-31T15:11:24.431Z,32.08
2023-03-31T15:14:04.338Z,31.49
2023-03-31T15:16:42.727Z,31.00
2023-03-31T15:19:16.201Z,31.24
2023-03-31T15:21:43.968Z,31.40
2023-03-31T15:24:14.761Z,31.93
2023-03-31T15:26:56.807Z,31.89
2023-03-31T15:29:33.593Z,31.64
2023-03-31T15:32:00.625Z,31.62
2023-03-31T15:34:33.372Z,31.85
2023-03-31T15:37:01.139Z,31.38
2023-03-31T15:39:32.097Z,31.10
2023-03-31T15:42:01.985Z,31.41
2023-03-31T15:44:46.835Z,31.02
2023-03-31T15:47:29.707Z,31.02
2023-03-31T15:50:13.053Z,30.98
2023-03-31T15:52:48.140Z,30.94
2023-03-31T15:55:33.206Z,30.68
2023-03-31T15:58:01.149Z,30.79
2023-03-31T16:00:37.423Z,30.23
2023-03-31T16:03:13.468Z,29.26
2023-03-31T16:05:53.688Z,28.97
2023-03-31T16:08:28.006Z,29.16
2023-03-31T16:11:08.134Z,28.61
2023-03-31T16:16:13.544Z,27.10
2023-03-31T16:18:44.926Z,26.55
2023-03-31T16:21:14.145Z,25.85
2023-03-31T16:23:41.620Z,24.94
2023-03-31T16:26:08.648Z,24.24
2023-03-31T16:28:36.806Z,24.08
2023-03-31T16:31:06.068Z,22.86
2023-03-31T16:33:54.047Z,22.18
2023-03-31T16:36:21.164Z,21.90
2023-03-31T16:38:47.667Z,21.82
2023-03-31T16:41:15.980Z,21.02
2023-03-31T16:43:45.046Z,20.84
2023-03-31T16:46:11.785Z,20.62
2023-03-31T16:48:38.519Z,20.52
2023-03-31T16:51:05.253Z,20.29
2023-03-31T16:53:34.557Z,20.12
2023-03-31T16:56:02.211Z,20.10
2023-03-31T16:58:29.473Z,20.04
2023-03-31T17:00:58.039Z,20.01
2023-03-31T17:03:25.762Z,19.85
2023-03-31T17:05:56.250Z,19.87
2023-03-31T17:08:28.140Z,19.63
2023-03-31T17:10:56.159Z,19.57
2023-03-31T17:13:22.714Z,19.36
2023-03-31T17:15:49.656Z,19.21
2023-03-31T17:18:17.314Z,19.25
2023-03-31T17:20:44.036Z,19.21
2023-03-31T17:23:10.653Z,18.84
2023-03-31T17:25:37.557Z,18.74
2023-03-31T17:28:05.236Z,18.55
2023-03-31T17:30:34.914Z,18.31
2023-03-31T17:33:01.531Z,18.07
2023-03-31T17:35:28.750Z,18.12
2023-03-31T17:37:55.598Z,18.22
2023-03-31T17:40:25.840Z,18.10
2023-03-31T17:42:53.852Z,17.70
2023-03-31T17:45:20.569Z,17.48
2023-03-31T17:47:47.267Z,17.34
2023-03-31T17:50:13.964Z,16.69
2023-03-31T17:52:41.728Z,16.65
2023-03-31T17:55:09.016Z,16.26
2023-03-31T17:57:37.098Z,15.86
2023-03-31T18:00:09.786Z,15.81
2023-03-31T18:02:40.613Z,15.73
2023-03-31T18:05:08.438Z,15.60
2023-03-31T18:07:36.161Z,15.65
2023-03-31T18:10:05.820Z,15.77
2023-03-31T18:12:34.351Z,15.79
2023-03-31T18:15:02.824Z,15.51
2023-03-31T18:17:31.225Z,15.47
2023-03-31T18:19:59.043Z,15.35
2023-03-31T18:22:26.124Z,14.86
2023-03-31T18:24:52.783Z,14.85
2023-03-31T18:27:19.479Z,14.87
2023-03-31T18:29:46.168Z,14.70
2023-03-31T18:32:13.638Z,14.63
2023-03-31T18:34:40.559Z,14.81
2023-03-31T18:37:08.016Z,14.72
2023-03-31T18:39:34.723Z,14.67
2023-03-31T18:42:01.348Z,14.49
2023-03-31T18:44:28.229Z,14.48
2023-03-31T18:46:55.043Z,14.47
2023-03-31T18:49:22.482Z,14.36
2023-03-31T18:51:49.327Z,14.31
2023-03-31T18:54:16.954Z,14.21
2023-03-31T18:56:43.845Z,14.30
2023-03-31T18:59:10.730Z,14.21
2023-03-31T19:01:40.138Z,14.11
2023-03-31T19:04:08.062Z,14.05
2023-03-31T19:06:35.515Z,14.09
2023-03-31T19:09:02.103Z,13.90
2023-03-31T19:11:28.888Z,13.82
2023-03-31T19:13:56.432Z,13.84
2023-03-31T19:16:24.624Z,13.78
2023-03-31T19:18:51.306Z,13.82
2023-03-31T19:21:18.009Z,13.59
2023-03-31T19:23:44.685Z,13.63
2023-03-31T19:26:18.058Z,13.76
2023-03-31T19:28:45.197Z,13.74
2023-03-31T19:31:12.224Z,13.79
2023-03-31T19:33:38.854Z,13.82
2023-03-31T19:36:05.476Z,13.84
2023-03-31T19:38:34.743Z,13.86
2023-03-31T19:41:01.357Z,13.73
2023-03-31T19:43:29.551Z,13.64
2023-03-31T19:45:58.321Z,13.67
2023-03-31T19:48:26.565Z,13.73
2023-03-31T19:50:56.215Z,13.61
2023-03-31T19:53:23.424Z,13.67
2023-03-31T19:56:02.097Z,13.67
2023-03-31T19:58:30.090Z,13.60
2023-03-31T20:00:57.866Z,13.50
2023-03-31T20:03:26.566Z,13.65
2023-03-31T20:06:06.008Z,13.61
2023-03-31T20:08:34.252Z,13.54
2023-03-31T20:11:03.734Z,13.52
2023-03-31T20:13:32.646Z,13.47
2023-03-31T20:16:07.932Z,13.32
2023-03-31T20:18:36.614Z,13.31
2023-03-31T20:21:07.945Z,13.32
2023-03-31T20:23:35.088Z,13.11
2023-03-31T20:26:02.058Z,13.01
2023-03-31T20:28:29.642Z,13.16
2023-03-31T20:30:56.415Z,13.26
2023-03-31T20:33:23.884Z,13.16
2023-03-31T20:36:15.855Z,13.33
2023-03-31T20:38:44.840Z,13.30
2023-03-31T20:41:12.473Z,13.20
2023-03-31T20:43:40.111Z,13.24
2023-03-31T20:46:08.524Z,13.23
2023-03-31T20:48:41.898Z,12.98
2023-03-31T20:51:10.793Z,13.09
2023-03-31T20:53:42.076Z,13.00
2023-03-31T20:56:10.710Z,13.00
2023-03-31T20:58:37.500Z,13.13
2023-03-31T21:01:06.126Z,13.19
2023-03-31T21:03:33.205Z,13.13
2023-03-31T21:06:04.753Z,13.03
2023-03-31T21:08:31.729Z,13.04
2023-03-31T21:10:59.332Z,12.92
2023-03-31T21:13:27.288Z,13.01
2023-03-31T21:15:55.907Z,12.93
2023-03-31T21:18:23.347Z,13.04
2023-03-31T21:20:56.068Z,13.03
2023-03-31T21:23:24.235Z,13.26
2023-03-31T21:25:53.814Z,13.33
2023-03-31T21:28:23.890Z,13.23
2023-03-31T21:30:55.978Z,13.08
2023-03-31T21:33:26.161Z,13.04
2023-03-31T21:35:53.125Z,13.04
2023-03-31T21:38:20.220Z,12.91
2023-03-31T21:40:48.324Z,12.84
2023-03-31T21:43:15.755Z,12.90
2023-03-31T21:45:42.336Z,12.87
2023-03-31T21:48:10.770Z,12.69
2023-03-31T21:50:39.961Z,12.74
2023-03-31T21:53:08.251Z,12.81
2023-03-31T21:55:37.378Z,12.69
2023-03-31T21:58:05.464Z,12.48
2023-03-31T22:00:32.880Z,12.64
2023-03-31T22:03:16.162Z,12.51
2023-03-31T22:05:46.735Z,12.44
2023-03-31T22:08:13.318Z,12.36
2023-03-31T22:10:39.912Z,12.39
2023-03-31T22:13:06.542Z,12.37
2023-03-31T22:15:33.497Z,12.49
2023-03-31T22:18:01.344Z,12.47
2023-03-31T22:20:28.318Z,12.50
2023-03-31T22:22:54.911Z,12.38
2023-03-31T22:25:21.497Z,12.35
2023-03-31T22:27:48.141Z,12.13
2023-03-31T22:30:15.012Z,12.16
2023-03-31T22:32:41.697Z,12.13
2023-03-31T22:35:08.844Z,11.93
2023-03-31T22:37:35.568Z,11.72
2023-03-31T22:40:02.276Z,11.63
2023-03-31T22:42:28.861Z,11.47
2023-03-31T22:44:55.481Z,10.86
2023-03-31T22:47:22.125Z,11.28
2023-03-31T22:49:48.708Z,11.47
2023-03-31T22:52:15.360Z,11.41
2023-03-31T22:54:42.067Z,11.49
2023-03-31T22:57:08.907Z,11.35
2023-03-31T22:59:36.306Z,11.46
2023-03-31T23:02:03.693Z,11.50
2023-03-31T23:04:30.684Z,11.58
2023-03-31T23:06:57.672Z,11.56
2023-03-31T23:09:24.828Z,11.65
2023-03-31T23:11:51.617Z,11.60
2023-03-31T23:14:18.297Z,11.76
2023-03-31T23:16:45.126Z,11.79
2023-03-31T23:19:12.250Z,11.70
2023-03-31T23:21:38.916Z,11.68
2023-03-31T23:24:05.664Z,11.64
2023-03-31T23:26:33.454Z,11.71
2023-03-31T23:29:00.502Z,11.66
2023-03-31T23:31:31.008Z,11.83
2023-03-31T23:33:59.180Z,11.75
2023-03-31T23:36:27.347Z,12.17
2023-03-31T23:38:56.170Z,11.97
2023-03-31T23:41:24.051Z,11.97
2023-03-31T23:43:52.702Z,12.17
2023-03-31T23:46:19.487Z,12.22
2023-03-31T23:48:46.308Z,12.27
2023-03-31T23:51:13.856Z,12.39
2023-03-31T23:53:40.540Z,12.19
2023-03-31T23:56:10.584Z,12.50
2023-03-31T23:58:37.449Z,12.74
